CDT,Max TemperatureF,Mean TemperatureF,Min TemperatureF,Max Dew PointF,MeanDew PointF,Min DewpointF,Max Humidity, Mean Humidity, Min Humidity, Max Sea Level PressureIn, Mean Sea Level PressureIn, Min Sea Level PressureIn, Max VisibilityMiles, Mean VisibilityMiles, Min VisibilityMiles, Max Wind SpeedMPH, Mean Wind SpeedMPH, Max Gust SpeedMPH,PrecipitationIn, CloudCover, Events, WindDirDegrees
2013-3-1,28,18,8,21,16,7,83,73,63,30.33,30.26,30.16,10,10,7,15,9,20,T,7,Snow,6
2013-3-2,26,13,0,14,6,-2,95,75,55,30.35,30.28,30.19,10,8,1,8,2,10,0.00,2,,305
2013-3-3,28,15,2,16,9,0,91,71,50,30.22,30.12,30.02,10,9,5,15,7,20,0.00,5,,127
2013-3-4,30,26,22,24,21,15,92,80,68,30.03,29.94,29.89,10,5,1,29,17,36,0.14,8,Snow,113
2013-3-5,31,28,25,25,24,20,100,85,69,30.25,30.02,29.92,10,5,0,25,11,30,0.24,8,Fog-Snow,334
2013-3-6,27,13,-1,20,13,-4,88,78,68,30.41,30.36,30.26,10,8,0,22,10,29,0.00,5,Fog,329
2013-3-7,26,11,-4,20,4,-8,95,85,74,30.45,30.38,30.34,10,4,0,16,5,18,0.00,2,Fog,124
2013-3-8,38,26,14,30,24,13,92,81,70,30.38,30.29,30.14,9,7,4,21,11,24,T,1,,123
2013-3-9,37,36,34,36,34,30,100,91,82,30.10,29.84,29.70,7,3,0,21,12,29,0.76,8,Fog-Rain-Snow,144
2013-3-10,36,34,32,36,33,30,100,95,89,29.78,29.70,29.63,10,4,0,24,12,30,1.13,8,Fog-Rain-Snow,8
2013-3-11,33,28,23,31,25,17,92,83,74,29.92,29.73,29.65,10,7,1,24,15,30,0.02,8,Snow,327
2013-3-12,31,26,20,27,19,14,84,74,63,30.20,30.01,29.93,10,8,1,26,14,36,0.01,6,Snow,290
2013-3-13,30,23,15,19,14,10,92,73,53,30.43,30.36,30.21,10,10,10,20,8,25,0.00,0,,294
2013-3-14,42,32,21,30,24,18,92,74,55,30.35,30.17,30.06,10,10,7,18,6,25,T,2,Snow,165
2013-3-15,42,35,27,35,30,26,100,88,76,30.04,29.90,29.76,7,4,2,20,4,23,0.00,4,,76
2013-3-16,33,28,23,32,25,17,96,80,63,30.22,30.00,29.80,10,8,1,26,15,35,0.00,6,,342
2013-3-17,36,28,19,27,19,11,78,69,59,30.22,30.10,29.91,10,10,10,24,15,30,0.00,3,,89
2013-3-18,32,24,15,29,21,6,100,84,67,29.94,29.78,29.66,10,5,1,30,16,38,0.15,7,Snow,213
2013-3-19,27,19,11,16,8,3,73,62,50,30.25,30.12,29.93,10,10,10,25,15,32,0.00,1,,293
2013-3-20,23,17,10,8,5,1,73,61,49,30.28,30.23,30.17,10,10,10,33,18,43,0.00,0,,310
2013-3-21,30,19,7,13,8,3,88,67,46,30.17,30.11,30.06,10,10,10,13,4,17,0.00,0,,357
2013-3-22,36,25,13,21,15,10,96,70,44,30.12,30.09,30.05,10,10,10,8,4,12,0.00,1,,15
2013-3-23,39,30,21,24,20,18,88,66,44,30.16,30.11,30.06,10,10,10,13,7,16,0.00,3,,4
2013-3-24,33,31,28,29,26,23,92,82,72,30.05,29.92,29.85,10,4,1,21,12,23,0.04,8,Snow,3
2013-3-25,37,31,25,27,22,18,85,71,56,30.23,30.08,29.95,10,10,7,24,16,30,T,3,,343
2013-3-26,40,31,22,26,22,19,88,68,48,30.34,30.29,30.23,10,10,10,16,7,21,0.00,4,,312
2013-3-27,43,32,21,27,23,20,92,68,43,30.38,30.34,30.31,10,9,1,8,2,12,0.00,1,,349
2013-3-28,48,36,23,32,26,21,92,69,45,30.37,30.33,30.28,10,10,6,10,4,15,0.00,4,,102
2013-3-29,56,41,26,35,30,24,92,68,43,30.32,30.26,30.15,10,10,10,13,6,17,0.00,1,,135
2013-3-30,50,39,28,48,41,29,100,81,62,30.14,29.93,29.86,10,4,0,21,7,26,0.08,6,Fog-Rain,192
2013-3-31,47,37,27,36,30,21,100,75,49,30.06,29.90,29.85,10,5,0,30,15,37,0.00,5,Fog,304